Kezdőlap
METAR-TAF:

METAR-TAF

Repülőterek :

Teherán, Irán

földrajzi szélesség: 35-41N, földrajzi hosszúság: 051-21E, magasság: 1204 m

Jelenlegi meteorológiai megfigyelések

A jelentés 6 órával és 40 perccel ezelõtt készült, 16:30 UTC
Délkeleti szél 6 kt
Hőmérséklet 37°C
Páratartalom 8%
Légköri nyomás 1003 hPa
Látótávolság 10 km, vagy több
Kevés felhő 4000 lábon

METAR: OIII 151630Z 13006KT 9999 FEW040 37/M03 Q1003 A2962

Idő: 03:40 (23:10 UTC)

Előrejelzés

A jelentés 12 órával és 0 perccel ezelõtt készült, 11:10 UTC
Az előrejelzés 15-én 12 óra UTC és 16-én 18 óra UTC között érvényes
Kelet-délkeleti szél 10 kt
Látótávolság: 8000 m
Kevés felhő 4500 lábon
16-én 08 óra UTC és 16-én 15 óra UTC között ideiglenes
Délkeleti szél 17 kt

TAF: OIII 151110Z 1512/1618 12005MPS 8000 FEW045 TEMPO 1608/1615 14009MPS

Meteorológiai megfigyelések és előrejelzések több, mint 4000 repülőtéren (METAR és TAF jelentéseket).

A térképen piros és sárga pontok jelzik az elérhető meteorológiai állomásokat.

Mozgassa az egeret a pont fölött, hogy megjelenjen az állomás neve.

Azután kattintson az időjárási megfigyelések és előrejelzések megtekintéséhez.

A térkép megváltoztatása: kattintson a fekete keresztel jelölt zöld gombra ráközelítéshez, a vonallal jelölt zöld gombra távolításhoz, vagy a zöld nyilakra a szomszédos térképek eléréséhez.


METAR-TAF: